createdAt,value
2023-01-12T00:02:07.448Z,34.80
2023-01-12T00:04:40.763Z,33.60
2023-01-12T00:07:12.454Z,36.10
2023-01-12T00:09:43.717Z,36.00
2023-01-12T00:12:14.766Z,35.10
2023-01-12T00:14:43.393Z,36.10
2023-01-12T00:17:14.552Z,26.40
2023-01-12T00:19:45.553Z,24.80
2023-01-12T00:22:16.918Z,22.90
2023-01-12T00:24:50.119Z,22.70
2023-01-12T00:27:20.629Z,20.50
2023-01-12T00:29:50.136Z,22.70
2023-01-12T00:32:21.682Z,25.80
2023-01-12T00:34:55.448Z,25.90
2023-01-12T00:37:25.324Z,26.20
2023-01-12T00:40:01.831Z,25.20
2023-01-12T00:42:49.727Z,26.10
2023-01-12T00:45:22.389Z,27.40
2023-01-12T00:47:53.546Z,27.60
2023-01-12T00:50:23.196Z,27.30
2023-01-12T00:52:51.921Z,27.80
2023-01-12T00:55:20.504Z,24.70
2023-01-12T00:57:49.133Z,23.50
2023-01-12T01:00:18.328Z,24.80
2023-01-12T01:02:51.472Z,23.50
2023-01-12T01:05:24.566Z,25.10
2023-01-12T01:07:53.203Z,21.70
2023-01-12T01:10:22.026Z,24.80
2023-01-12T01:12:50.791Z,26.00
2023-01-12T01:15:23.343Z,27.00
2023-01-12T01:17:54.647Z,24.80
2023-01-12T01:20:23.634Z,25.70
2023-01-12T01:22:52.334Z,25.80
2023-01-12T01:25:24.075Z,24.20
2023-01-12T01:27:52.736Z,24.30
2023-01-12T01:30:27.276Z,24.40
2023-01-12T01:32:55.841Z,25.10
2023-01-12T01:35:24.505Z,24.70
2023-01-12T01:37:57.637Z,25.40
2023-01-12T01:40:30.032Z,24.60
2023-01-12T01:43:01.324Z,26.70
2023-01-12T01:45:35.328Z,22.40
2023-01-12T01:48:04.170Z,22.10
2023-01-12T01:50:37.847Z,23.10
2023-01-12T01:53:17.703Z,25.70
2023-01-12T01:56:20.809Z,25.90
2023-01-12T01:59:16.562Z,24.30
2023-01-12T02:01:46.303Z,28.40
2023-01-12T02:04:17.493Z,31.20
2023-01-12T02:06:46.171Z,31.50
2023-01-12T02:09:24.433Z,26.60
2023-01-12T02:12:16.141Z,32.10
2023-01-12T02:15:06.241Z,24.70
2023-01-12T02:17:44.280Z,28.30
2023-01-12T02:20:38.163Z,24.30
2023-01-12T02:26:41.284Z,20.30
2023-01-12T02:29:58.703Z,23.20
2023-01-12T02:32:45.024Z,22.60
2023-01-12T02:35:29.398Z,22.70
2023-01-12T02:38:25.856Z,24.60
2023-01-12T02:41:08.388Z,19.80
2023-01-12T02:43:40.231Z,22.20
2023-01-12T02:46:27.542Z,25.30
2023-01-12T02:49:11.355Z,22.20
2023-01-12T02:52:02.745Z,23.90
2023-01-12T02:54:34.717Z,22.90
2023-01-12T02:57:09.252Z,25.90
2023-01-12T02:59:41.609Z,24.70
2023-01-12T03:02:15.132Z,24.70
2023-01-12T03:04:43.989Z,26.40
2023-01-12T03:07:15.494Z,26.40
2023-01-12T03:09:44.060Z,32.30
2023-01-12T03:12:37.724Z,33.00
2023-01-12T03:15:12.579Z,30.90
2023-01-12T03:17:55.007Z,32.30
2023-01-12T03:20:34.586Z,27.60
2023-01-12T03:23:29.711Z,31.20
2023-01-12T03:26:01.356Z,31.80
2023-01-12T03:28:34.759Z,27.80
2023-01-12T03:31:11.292Z,28.60
2023-01-12T03:33:42.912Z,27.50
2023-01-12T03:36:28.918Z,26.00
2023-01-12T03:39:02.422Z,24.60
2023-01-12T03:42:01.396Z,28.30
2023-01-12T03:44:33.543Z,23.50
2023-01-12T03:47:09.187Z,26.10
2023-01-12T03:49:48.496Z,23.50
2023-01-12T03:52:18.642Z,22.40
2023-01-12T03:54:52.261Z,22.50
2023-01-12T03:57:21.974Z,20.50
2023-01-12T03:59:50.585Z,20.20
2023-01-12T04:02:19.317Z,19.70
2023-01-12T04:04:48.304Z,20.60
2023-01-12T04:07:19.547Z,21.10
2023-01-12T04:09:50.619Z,20.60
2023-01-12T04:12:19.635Z,20.70
2023-01-12T04:14:54.032Z,17.70
2023-01-12T04:17:25.433Z,19.10
2023-01-12T04:19:54.847Z,17.90
2023-01-12T04:22:41.893Z,21.10
2023-01-12T04:25:21.669Z,18.70
2023-01-12T04:27:56.268Z,15.80
2023-01-12T04:30:27.381Z,17.50
2023-01-12T04:32:57.022Z,16.50
2023-01-12T04:35:26.730Z,15.40
2023-01-12T04:37:55.425Z,16.00
2023-01-12T04:40:25.369Z,16.10
2023-01-12T04:43:02.315Z,17.00
2023-01-12T04:45:32.900Z,20.20
2023-01-12T04:48:07.589Z,17.70
2023-01-12T04:50:36.763Z,15.10
2023-01-12T04:53:07.234Z,19.70
2023-01-12T04:55:40.851Z,17.50
2023-01-12T04:58:12.482Z,18.70
2023-01-12T05:00:41.231Z,16.00
2023-01-12T05:03:14.543Z,15.60
2023-01-12T05:05:43.571Z,17.10
2023-01-12T05:08:31.262Z,19.20
2023-01-12T05:11:01.779Z,16.80
2023-01-12T05:13:31.869Z,19.50
2023-01-12T05:16:18.250Z,18.60
2023-01-12T05:18:47.087Z,17.70
2023-01-12T05:21:18.125Z,20.20
2023-01-12T05:23:46.759Z,16.00
2023-01-12T05:26:15.510Z,15.90
2023-01-12T05:28:44.228Z,16.10
2023-01-12T05:31:14.671Z,15.70
2023-01-12T05:33:43.788Z,18.20
2023-01-12T05:36:17.164Z,17.80
2023-01-12T05:38:45.743Z,15.30
2023-01-12T05:41:16.954Z,18.30
2023-01-12T05:43:51.941Z,16.10
2023-01-12T05:46:31.433Z,17.30
2023-01-12T05:49:00.241Z,18.80
2023-01-12T05:51:31.102Z,20.00
2023-01-12T05:53:59.772Z,17.60
2023-01-12T05:56:28.932Z,21.40
2023-01-12T05:59:02.709Z,20.30
2023-01-12T06:01:34.892Z,22.80
2023-01-12T06:04:04.319Z,21.80
2023-01-12T06:06:33.635Z,18.10
2023-01-12T06:09:03.175Z,18.20
2023-01-12T06:11:50.722Z,18.30
2023-01-12T06:14:19.723Z,17.20
2023-01-12T06:16:48.352Z,18.10
2023-01-12T06:19:16.956Z,20.30
2023-01-12T06:21:45.435Z,23.20
2023-01-12T06:24:14.079Z,28.40
2023-01-12T06:26:45.413Z,25.40
2023-01-12T06:29:14.239Z,26.10
2023-01-12T06:31:44.148Z,27.80
2023-01-12T06:34:13.398Z,26.40
2023-01-12T06:36:42.680Z,26.80
2023-01-12T06:39:14.518Z,26.40
2023-01-12T06:42:07.073Z,23.90
2023-01-12T06:44:38.744Z,27.70
2023-01-12T06:47:08.139Z,23.80
2023-01-12T06:49:39.253Z,31.00
2023-01-12T06:52:08.479Z,28.20
2023-01-12T06:54:39.758Z,29.60
2023-01-12T06:57:08.498Z,27.80
2023-01-12T06:59:42.367Z,31.50
2023-01-12T07:02:16.119Z,29.60
2023-01-12T07:04:45.017Z,22.50
2023-01-12T07:07:13.643Z,22.80
2023-01-12T07:09:42.196Z,18.70
2023-01-12T07:12:14.748Z,16.30
2023-01-12T07:14:46.435Z,18.20
2023-01-12T07:17:16.613Z,19.60
2023-01-12T07:19:45.361Z,17.90
2023-01-12T07:22:14.012Z,21.50
2023-01-12T07:24:45.621Z,21.80
2023-01-12T07:27:14.874Z,21.20
2023-01-12T07:29:46.776Z,24.40
2023-01-12T07:32:15.378Z,27.00
2023-01-12T07:34:45.450Z,26.00
2023-01-12T07:37:14.008Z,26.20
2023-01-12T07:39:43.238Z,28.40
2023-01-12T07:42:23.923Z,26.40
2023-01-12T07:44:53.364Z,23.50
2023-01-12T07:47:22.045Z,23.10
2023-01-12T07:49:50.745Z,22.50
2023-01-12T07:52:20.009Z,24.70
2023-01-12T07:54:53.018Z,19.70
2023-01-12T07:57:21.592Z,18.60
2023-01-12T07:59:53.918Z,19.50
2023-01-12T08:02:23.314Z,19.90
2023-01-12T08:04:55.160Z,19.50
2023-01-12T08:07:23.718Z,19.70
2023-01-12T08:09:52.180Z,19.70
2023-01-12T08:12:21.581Z,19.60
2023-01-12T08:14:50.355Z,19.60
2023-01-12T08:17:22.518Z,22.50
2023-01-12T08:20:05.475Z,20.40
2023-01-12T08:22:40.122Z,22.70
2023-01-12T08:25:18.362Z,23.80
2023-01-12T08:27:50.394Z,24.20
2023-01-12T08:30:25.953Z,22.70
2023-01-12T08:33:02.068Z,23.40
2023-01-12T08:35:35.361Z,24.60
2023-01-12T08:38:06.188Z,25.00
2023-01-12T08:40:56.723Z,24.60
2023-01-12T08:43:43.818Z,20.20
2023-01-12T08:46:13.484Z,21.90
2023-01-12T08:48:42.269Z,22.80
2023-01-12T08:51:11.647Z,23.20
2023-01-12T08:53:40.929Z,23.20
2023-01-12T08:56:10.372Z,24.10
2023-01-12T08:58:39.237Z,23.70
2023-01-12T09:01:14.129Z,25.00
2023-01-12T09:03:47.575Z,23.60
2023-01-12T09:06:23.948Z,26.10
2023-01-12T09:08:57.926Z,29.50
2023-01-12T09:14:49.196Z,28.10
2023-01-12T09:17:23.114Z,30.20
2023-01-12T09:19:56.245Z,32.80
2023-01-12T09:22:29.898Z,30.00
2023-01-12T09:24:59.324Z,30.60
2023-01-12T09:27:28.235Z,36.70
2023-01-12T09:30:00.298Z,26.70
2023-01-12T09:32:36.737Z,28.00
2023-01-12T09:35:09.014Z,33.70
2023-01-12T09:37:38.145Z,29.50
2023-01-12T09:40:26.788Z,26.70
2023-01-12T09:43:16.843Z,29.00
2023-01-12T09:46:09.046Z,24.60
2023-01-12T09:48:40.884Z,28.10
2023-01-12T09:51:32.299Z,28.80
2023-01-12T09:54:05.500Z,23.80
2023-01-12T09:56:59.632Z,22.30
2023-01-12T09:59:49.522Z,17.00
2023-01-12T10:02:20.538Z,19.00
2023-01-12T10:04:54.588Z,16.20
2023-01-12T10:07:23.917Z,17.50
2023-01-12T10:09:52.909Z,19.10
2023-01-12T10:12:34.560Z,18.30
2023-01-12T10:15:31.345Z,20.50
2023-01-12T10:18:32.440Z,19.00
2023-01-12T10:21:03.407Z,18.30
2023-01-12T10:23:32.827Z,21.80
2023-01-12T10:26:25.716Z,18.30
2023-01-12T10:28:56.501Z,21.00
2023-01-12T10:31:30.745Z,21.70
2023-01-12T10:34:12.410Z,19.50
2023-01-12T10:36:49.367Z,18.80
2023-01-12T10:39:34.418Z,19.20
2023-01-12T10:42:09.146Z,18.50
2023-01-12T10:44:40.664Z,19.00
2023-01-12T10:47:16.708Z,22.30
2023-01-12T10:49:45.429Z,23.80
2023-01-12T10:52:51.817Z,26.70
2023-01-12T10:55:23.431Z,24.00
2023-01-12T10:57:53.063Z,24.00
2023-01-12T11:00:26.327Z,26.40
2023-01-12T11:02:55.935Z,27.70
2023-01-12T11:05:38.817Z,27.10
2023-01-12T11:08:27.674Z,24.20
2023-01-12T11:10:56.460Z,24.70
2023-01-12T11:13:36.812Z,23.50
2023-01-12T11:16:22.912Z,27.30
2023-01-12T11:19:22.212Z,26.50
2023-01-12T11:22:05.373Z,26.40
2023-01-12T11:24:49.870Z,26.10
2023-01-12T11:27:29.472Z,28.40
2023-01-12T11:30:08.069Z,25.30
2023-01-12T11:32:39.591Z,33.50
2023-01-12T11:35:35.514Z,29.00
2023-01-12T11:38:11.729Z,28.50
2023-01-12T11:41:08.405Z,27.20
2023-01-12T11:44:08.463Z,24.50
2023-01-12T11:46:46.852Z,26.20
2023-01-12T11:49:53.117Z,27.90
2023-01-12T11:52:22.184Z,24.30
2023-01-12T11:54:50.659Z,24.10
2023-01-12T11:57:45.634Z,23.70
2023-01-12T12:00:40.655Z,28.40
2023-01-12T12:03:44.851Z,23.60
2023-01-12T12:06:40.802Z,23.60
2023-01-12T12:09:37.537Z,22.60
2023-01-12T12:12:34.800Z,22.90
2023-01-12T12:15:19.052Z,23.10
2023-01-12T12:18:17.638Z,23.10
2023-01-12T12:21:10.577Z,22.10
2023-01-12T12:24:06.840Z,18.00
2023-01-12T12:26:52.455Z,19.10
2023-01-12T12:29:57.381Z,32.10
2023-01-12T12:32:36.805Z,19.70
2023-01-12T12:35:34.874Z,18.60
2023-01-12T12:38:20.942Z,18.30
2023-01-12T12:41:37.040Z,18.10
2023-01-12T12:45:04.697Z,18.40
2023-01-12T12:47:46.385Z,16.00
2023-01-12T12:50:17.602Z,19.20
2023-01-12T12:52:53.070Z,15.30
2023-01-12T12:55:22.171Z,19.90
2023-01-12T12:58:23.460Z,19.80
2023-01-12T13:00:54.010Z,16.60
2023-01-12T13:03:41.051Z,18.80
2023-01-12T13:06:28.500Z,16.40
2023-01-12T13:09:03.482Z,19.00
2023-01-12T13:12:00.819Z,17.00
2023-01-12T13:14:35.120Z,18.50
2023-01-12T13:17:27.251Z,16.90
2023-01-12T13:20:08.269Z,18.20
2023-01-12T13:22:42.252Z,17.20
2023-01-12T13:25:10.656Z,20.40
2023-01-12T13:28:01.054Z,18.60
2023-01-12T13:30:29.927Z,19.10
2023-01-12T13:33:01.779Z,21.80
2023-01-12T13:35:35.841Z,20.20
2023-01-12T13:38:23.351Z,18.90
2023-01-12T13:40:55.681Z,22.40
2023-01-12T13:43:40.579Z,21.30
2023-01-12T13:46:18.937Z,21.40
2023-01-12T13:48:51.924Z,20.00
2023-01-12T13:51:24.809Z,20.80
2023-01-12T13:56:30.786Z,20.00
2023-01-12T13:59:02.262Z,18.80
2023-01-12T14:01:38.063Z,21.80
2023-01-12T14:04:20.422Z,19.30
2023-01-12T14:07:35.475Z,22.50
2023-01-12T14:10:19.166Z,18.80
2023-01-12T14:13:05.895Z,16.10
2023-01-12T14:16:01.897Z,17.40
2023-01-12T14:18:48.646Z,18.30
2023-01-12T14:21:38.783Z,18.30
2023-01-12T14:24:20.848Z,19.70
2023-01-12T14:26:49.622Z,21.50
2023-01-12T14:29:19.918Z,21.40
2023-01-12T14:31:51.306Z,18.40
2023-01-12T14:34:32.994Z,28.60
2023-01-12T14:37:08.617Z,28.70
2023-01-12T14:39:41.498Z,22.00
2023-01-12T14:45:45.661Z,19.60
2023-01-12T14:48:29.041Z,18.60
2023-01-12T14:51:18.095Z,19.30
2023-01-12T14:53:48.828Z,18.60
2023-01-12T14:56:34.791Z,17.30
2023-01-12T14:59:07.924Z,18.30
2023-01-12T15:01:38.493Z,19.50
2023-01-12T15:04:14.874Z,18.50
2023-01-12T15:06:45.434Z,21.60
2023-01-12T15:09:32.703Z,19.40
2023-01-12T15:12:29.621Z,22.70
2023-01-12T15:15:24.136Z,19.30
2023-01-12T15:18:14.773Z,20.40
2023-01-12T15:21:05.506Z,19.90
2023-01-12T15:23:56.345Z,18.60
2023-01-12T15:26:25.339Z,24.00
2023-01-12T15:28:54.596Z,24.90
2023-01-12T15:31:33.668Z,20.60
2023-01-12T15:34:03.762Z,18.60
2023-01-12T15:36:33.729Z,21.90
2023-01-12T15:39:02.247Z,22.20
2023-01-12T15:41:51.154Z,23.60
2023-01-12T15:44:21.849Z,20.70
2023-01-12T15:46:52.050Z,20.70
2023-01-12T15:49:21.669Z,19.80
2023-01-12T15:51:53.480Z,19.60
2023-01-12T15:54:22.258Z,22.00
2023-01-12T15:56:59.726Z,20.90
2023-01-12T15:59:28.447Z,21.70
2023-01-12T16:01:58.389Z,23.90
2023-01-12T16:04:45.594Z,21.20
2023-01-12T16:07:17.628Z,21.70
2023-01-12T16:09:50.776Z,24.20
2023-01-12T16:12:19.617Z,21.10
2023-01-12T16:14:48.419Z,21.70
2023-01-12T16:17:17.219Z,22.10
2023-01-12T16:19:45.903Z,20.20
2023-01-12T16:22:21.225Z,18.20
2023-01-12T16:24:52.085Z,21.00
2023-01-12T16:27:27.594Z,21.70
2023-01-12T16:29:56.929Z,18.80
2023-01-12T16:32:27.981Z,19.50
2023-01-12T16:35:00.070Z,19.10
2023-01-12T16:37:33.709Z,17.50
2023-01-12T16:40:05.275Z,18.50
2023-01-12T16:42:34.191Z,21.20
2023-01-12T16:45:03.760Z,19.60
2023-01-12T16:47:35.638Z,20.30
2023-01-12T16:50:05.908Z,20.20
2023-01-12T16:52:34.368Z,21.20
2023-01-12T16:55:03.211Z,20.70
2023-01-12T16:57:33.795Z,17.60
2023-01-12T17:00:02.545Z,20.60
2023-01-12T17:02:31.869Z,18.60
2023-01-12T17:05:00.829Z,21.90
2023-01-12T17:07:29.395Z,21.80
2023-01-12T17:09:59.692Z,22.40
2023-01-12T17:12:28.505Z,22.90
2023-01-12T17:14:57.654Z,22.60
2023-01-12T17:17:26.625Z,20.10
2023-01-12T17:19:57.098Z,21.00
2023-01-12T17:22:26.233Z,20.50
2023-01-12T17:24:55.476Z,20.20
2023-01-12T17:27:27.251Z,21.60
2023-01-12T17:29:56.006Z,20.20
2023-01-12T17:32:27.221Z,20.20
2023-01-12T17:34:55.741Z,23.40
2023-01-12T17:37:25.082Z,22.60
2023-01-12T17:39:54.980Z,22.00
2023-01-12T17:42:42.178Z,25.00
2023-01-12T17:45:12.955Z,21.50
2023-01-12T17:47:42.498Z,21.80
2023-01-12T17:50:11.699Z,23.40
2023-01-12T17:52:41.810Z,22.60
2023-01-12T17:55:11.280Z,24.30
2023-01-12T17:57:39.981Z,26.20
2023-01-12T18:00:11.048Z,23.00
2023-01-12T18:02:48.334Z,21.30
2023-01-12T18:05:19.720Z,22.60
2023-01-12T18:07:49.393Z,23.50
2023-01-12T18:10:19.518Z,24.10
2023-01-12T18:12:49.482Z,27.40
2023-01-12T18:15:18.061Z,25.50
2023-01-12T18:17:47.093Z,26.80
2023-01-12T18:20:17.035Z,27.80
2023-01-12T18:22:46.462Z,30.40
2023-01-12T18:25:16.521Z,29.70
2023-01-12T18:27:45.669Z,34.30
2023-01-12T18:30:14.342Z,29.70
2023-01-12T18:32:42.944Z,30.20
2023-01-12T18:35:15.238Z,30.00
2023-01-12T18:37:43.836Z,29.80
2023-01-12T18:40:13.719Z,36.50
2023-01-12T18:42:52.020Z,35.40
2023-01-12T18:45:24.518Z,50.60
2023-01-12T18:48:11.869Z,54.30
2023-01-12T18:51:03.506Z,62.00
2023-01-12T18:53:35.553Z,54.40
2023-01-12T18:56:06.077Z,57.30
2023-01-12T18:58:36.478Z,52.30
2023-01-12T19:01:11.667Z,54.70
2023-01-12T19:03:41.619Z,51.60
2023-01-12T19:06:24.043Z,49.70
2023-01-12T19:09:14.514Z,44.40
2023-01-12T19:11:43.177Z,44.00
2023-01-12T19:14:30.974Z,45.00
2023-01-12T19:17:19.040Z,40.50
2023-01-12T19:19:52.942Z,34.60
2023-01-12T19:22:40.129Z,37.80
2023-01-12T19:25:34.802Z,33.80
2023-01-12T19:28:24.465Z,35.10
2023-01-12T19:30:53.284Z,38.30
2023-01-12T19:33:23.887Z,38.60
2023-01-12T19:35:52.748Z,37.80
2023-01-12T19:38:21.729Z,38.30
2023-01-12T19:40:50.855Z,33.20
2023-01-12T19:43:24.809Z,38.00
2023-01-12T19:45:57.534Z,40.10
2023-01-12T19:48:28.035Z,36.00
2023-01-12T19:51:10.448Z,36.10
2023-01-12T19:53:40.508Z,38.20
2023-01-12T19:56:12.171Z,36.30
2023-01-12T19:58:45.120Z,36.50
2023-01-12T20:01:24.041Z,41.30
2023-01-12T20:03:52.704Z,39.80
2023-01-12T20:06:21.321Z,37.80
2023-01-12T20:08:52.162Z,38.80
2023-01-12T20:11:20.711Z,33.70
2023-01-12T20:13:49.510Z,35.60
2023-01-12T20:16:18.732Z,36.20
2023-01-12T20:18:48.831Z,35.80
2023-01-12T20:21:17.662Z,33.40
2023-01-12T20:23:47.744Z,34.30
2023-01-12T20:26:26.089Z,33.60
2023-01-12T20:28:57.232Z,35.40
2023-01-12T20:31:25.993Z,37.40
2023-01-12T20:33:57.577Z,35.80
2023-01-12T20:36:26.506Z,32.30
2023-01-12T20:38:59.222Z,32.10
2023-01-12T20:41:28.704Z,36.70
2023-01-12T20:43:57.420Z,33.10
2023-01-12T20:46:26.327Z,35.70
2023-01-12T20:48:59.587Z,38.80
2023-01-12T20:51:29.624Z,37.50
2023-01-12T20:54:00.094Z,34.90
2023-01-12T20:56:31.054Z,35.70
2023-01-12T20:59:00.250Z,40.60
2023-01-12T21:01:29.983Z,44.20
2023-01-12T21:03:59.743Z,38.40
2023-01-12T21:06:28.292Z,33.80
2023-01-12T21:08:56.869Z,41.00
2023-01-12T21:11:25.761Z,40.10
2023-01-12T21:13:56.667Z,42.50
2023-01-12T21:16:26.681Z,43.60
2023-01-12T21:18:55.355Z,45.00
2023-01-12T21:21:24.770Z,42.70
2023-01-12T21:23:55.118Z,41.60
2023-01-12T21:26:23.751Z,42.10
2023-01-12T21:28:52.462Z,40.60
2023-01-12T21:31:21.432Z,42.10
2023-01-12T21:33:50.804Z,40.30
2023-01-12T21:36:23.782Z,40.30
2023-01-12T21:41:21.910Z,37.80
2023-01-12T21:43:53.043Z,40.10
2023-01-12T21:46:22.885Z,41.70
2023-01-12T21:48:54.778Z,41.20
2023-01-12T21:51:25.466Z,41.00
2023-01-12T21:53:57.700Z,43.20
2023-01-12T21:56:26.985Z,38.10
2023-01-12T21:58:59.427Z,58.40
2023-01-12T22:01:29.161Z,66.00
2023-01-12T22:03:58.943Z,67.60
2023-01-12T22:06:27.689Z,66.30
2023-01-12T22:08:59.039Z,63.40
2023-01-12T22:11:27.668Z,64.70
2023-01-12T22:13:56.248Z,59.00
2023-01-12T22:16:25.031Z,61.00
2023-01-12T22:18:54.553Z,59.80
2023-01-12T22:21:27.011Z,61.40
2023-01-12T22:23:56.154Z,60.80
2023-01-12T22:26:27.790Z,64.90
2023-01-12T22:28:57.235Z,60.60
2023-01-12T22:31:26.043Z,62.70
2023-01-12T22:34:08.454Z,64.60
2023-01-12T22:36:43.458Z,59.00
2023-01-12T22:39:13.090Z,58.80
2023-01-12T22:41:41.890Z,54.20
2023-01-12T22:44:15.347Z,47.70
2023-01-12T22:46:46.743Z,45.20
2023-01-12T22:49:25.668Z,50.40
2023-01-12T22:51:56.315Z,49.70
2023-01-12T22:54:27.045Z,50.60
2023-01-12T22:56:58.202Z,49.50
2023-01-12T22:59:27.097Z,53.30
2023-01-12T23:02:15.717Z,55.00
2023-01-12T23:04:51.836Z,57.90
2023-01-12T23:11:01.469Z,52.30
2023-01-12T23:13:30.667Z,47.70
2023-01-12T23:16:06.873Z,43.80
2023-01-12T23:18:43.874Z,42.60
2023-01-12T23:21:44.000Z,39.90
2023-01-12T23:24:15.800Z,38.00
2023-01-12T23:26:44.484Z,35.40
2023-01-12T23:29:17.829Z,36.60
2023-01-12T23:31:49.506Z,35.40
2023-01-12T23:34:19.487Z,35.70
2023-01-12T23:36:54.903Z,37.60
2023-01-12T23:39:27.212Z,35.20
2023-01-12T23:41:58.301Z,34.90
2023-01-12T23:44:33.574Z,39.00
2023-01-12T23:47:06.647Z,35.30
2023-01-12T23:49:36.310Z,41.10
2023-01-12T23:52:14.608Z,42.20
2023-01-12T23:54:45.600Z,40.80
2023-01-12T23:57:16.881Z,36.50
2023-01-12T23:59:46.924Z,40.40
